createdAt,value
2022-10-27T00:03:17.093Z,984.82
2022-10-27T00:08:46.317Z,985.0
2022-10-27T00:14:17.823Z,985.09
2022-10-27T00:19:49.319Z,984.91
2022-10-27T00:25:21.063Z,984.87
2022-10-27T00:30:52.898Z,984.87
2022-10-27T00:36:24.567Z,984.78
2022-10-27T00:41:56.446Z,984.7
2022-10-27T00:47:27.914Z,984.8
2022-10-27T00:52:59.867Z,984.88
2022-10-27T00:58:37.813Z,984.94
2022-10-27T01:04:10.149Z,984.9
2022-10-27T01:09:47.733Z,984.94
2022-10-27T01:15:13.447Z,984.94
2022-10-27T01:20:44.942Z,984.77
2022-10-27T01:26:16.641Z,984.61
2022-10-27T01:31:48.557Z,984.36
2022-10-27T01:37:19.867Z,984.54
2022-10-27T01:42:53.178Z,984.48
2022-10-27T01:48:23.305Z,984.49
2022-10-27T01:53:55.041Z,984.54
2022-10-27T01:59:31.197Z,984.49
2022-10-27T02:05:03.230Z,984.81
2022-10-27T02:10:35.271Z,984.81
2022-10-27T02:16:06.578Z,984.81
2022-10-27T02:21:38.082Z,985.18
2022-10-27T02:27:09.707Z,985.33
2022-10-27T02:32:41.609Z,985.26
2022-10-27T02:38:13.455Z,985.39
2022-10-27T02:43:45.387Z,985.46
2022-10-27T02:49:16.640Z,985.39
2022-10-27T02:54:48.757Z,985.58
2022-10-27T03:05:58.196Z,985.68
2022-10-27T03:11:30.203Z,985.55
2022-10-27T03:17:01.779Z,985.8
2022-10-27T03:22:33.766Z,986.12
2022-10-27T03:28:05.161Z,985.77
2022-10-27T03:33:36.923Z,985.94
2022-10-27T03:39:08.898Z,986.06
2022-10-27T03:44:40.430Z,985.8
2022-10-27T03:50:11.924Z,985.5
2022-10-27T03:55:44.414Z,985.59
2022-10-27T04:01:21.026Z,985.78
2022-10-27T04:06:51.538Z,985.97
2022-10-27T04:12:23.278Z,985.86
2022-10-27T04:17:55.690Z,985.8
2022-10-27T04:23:26.919Z,985.65
2022-10-27T04:28:58.934Z,985.82
2022-10-27T04:34:30.136Z,985.65
2022-10-27T04:40:02.851Z,985.74
2022-10-27T04:45:33.646Z,985.95
2022-10-27T04:51:06.150Z,985.93
2022-10-27T04:56:37.239Z,985.81
2022-10-27T05:02:13.563Z,985.72
2022-10-27T05:07:45.226Z,985.78
2022-10-27T05:13:16.698Z,985.83
2022-10-27T05:18:48.298Z,985.81
2022-10-27T05:24:20.458Z,985.69
2022-10-27T05:29:51.837Z,985.85
2022-10-27T05:35:23.773Z,985.33
2022-10-27T05:40:55.245Z,985.35
2022-10-27T05:46:27.190Z,985.54
2022-10-27T05:51:58.674Z,985.81
2022-10-27T05:57:30.575Z,985.55
2022-10-27T06:03:08.926Z,985.88
2022-10-27T06:08:40.678Z,986.03
2022-10-27T06:14:12.157Z,986.16
2022-10-27T06:19:44.453Z,986.51
2022-10-27T06:25:17.426Z,986.87
2022-10-27T06:30:47.268Z,987.02
2022-10-27T06:36:19.074Z,987.06
2022-10-27T06:41:50.993Z,987.16
2022-10-27T06:47:22.756Z,987.23
2022-10-27T06:52:54.999Z,986.98
2022-10-27T06:58:25.922Z,987.01
2022-10-27T07:04:04.151Z,986.99
2022-10-27T07:09:35.782Z,987.19
2022-10-27T07:15:07.839Z,987.39
2022-10-27T07:20:40.091Z,987.66
2022-10-27T07:26:10.995Z,987.96
2022-10-27T07:31:43.020Z,988.03
2022-10-27T07:37:14.485Z,988.23
2022-10-27T07:42:46.114Z,988.56
2022-10-27T07:48:17.980Z,989.05
2022-10-27T07:53:58.081Z,989.04
2022-10-27T07:59:21.678Z,990.32
2022-10-27T08:04:57.731Z,988.76
2022-10-27T08:10:29.221Z,989.27
2022-10-27T08:16:01.550Z,989.45
2022-10-27T08:21:32.746Z,989.77
2022-10-27T08:27:04.644Z,989.83
2022-10-27T08:32:36.111Z,989.97
2022-10-27T08:38:08.016Z,990.08
2022-10-27T08:43:39.705Z,989.83
2022-10-27T08:49:11.576Z,989.75
2022-10-27T08:54:43.253Z,989.7
2022-10-27T09:00:14.929Z,989.38
2022-10-27T09:05:53.585Z,989.86
2022-10-27T09:11:24.971Z,990.01
2022-10-27T09:16:56.505Z,990.18
2022-10-27T09:22:28.491Z,990.29
2022-10-27T09:27:59.906Z,989.45
2022-10-27T09:33:31.604Z,990.06
2022-10-27T09:39:04.108Z,989.71
2022-10-27T09:44:35.891Z,990.13
2022-10-27T09:50:07.630Z,990.15
2022-10-27T09:55:40.394Z,989.67
2022-10-27T10:01:11.184Z,989.68
2022-10-27T10:06:49.141Z,989.99
2022-10-27T10:12:24.990Z,989.92
2022-10-27T10:17:52.414Z,989.91
2022-10-27T10:23:24.270Z,989.93
2022-10-27T10:28:56.353Z,989.97
2022-10-27T10:34:27.549Z,989.86
2022-10-27T10:39:59.495Z,989.76
2022-10-27T10:45:31.014Z,989.68
2022-10-27T10:51:03.251Z,989.73
2022-10-27T10:56:34.349Z,989.52
2022-10-27T11:02:06.320Z,989.54
2022-10-27T11:07:42.690Z,989.48
2022-10-27T11:13:14.109Z,989.55
2022-10-27T11:18:46.804Z,989.67
2022-10-27T11:24:17.899Z,989.46
2022-10-27T11:29:49.982Z,989.29
2022-10-27T11:35:21.227Z,989.32
2022-10-27T11:40:52.671Z,989.25
2022-10-27T11:46:24.378Z,989.14
2022-10-27T11:51:56.223Z,989.34
2022-10-27T11:57:40.588Z,988.8
2022-10-27T12:02:59.665Z,988.34
2022-10-27T12:08:39.778Z,988.46
2022-10-27T12:14:11.878Z,988.53
2022-10-27T12:19:43.261Z,988.27
2022-10-27T12:25:14.817Z,988.03
2022-10-27T12:30:47.046Z,987.75
2022-10-27T12:36:18.624Z,987.89
2022-10-27T12:41:50.139Z,987.63
2022-10-27T12:47:21.913Z,987.59
2022-10-27T12:52:55.360Z,987.32
2022-10-27T12:58:25.885Z,987.29
2022-10-27T13:03:57.831Z,987.23
2022-10-27T13:09:34.008Z,987.08
2022-10-27T13:15:05.879Z,986.78
2022-10-27T13:20:37.782Z,986.64
2022-10-27T13:26:09.747Z,986.39
2022-10-27T13:31:40.966Z,986.2
2022-10-27T13:37:12.602Z,985.81
2022-10-27T13:42:44.375Z,985.83
2022-10-27T13:48:16.177Z,985.89
2022-10-27T13:53:47.830Z,986.03
2022-10-27T13:59:19.667Z,985.77
2022-10-27T14:04:51.651Z,985.22
2022-10-27T14:10:27.616Z,985.52
2022-10-27T14:15:59.428Z,985.31
2022-10-27T14:21:31.582Z,985.45
2022-10-27T14:27:02.595Z,985.27
2022-10-27T14:32:34.748Z,985.19
2022-10-27T14:38:06.204Z,985.01
2022-10-27T14:43:38.919Z,984.97
2022-10-27T14:49:09.583Z,984.54
2022-10-27T14:54:41.579Z,984.67
2022-10-27T15:00:13.958Z,984.55
2022-10-27T15:05:45.122Z,984.2
2022-10-27T15:11:22.954Z,984.04
2022-10-27T15:16:54.670Z,983.93
2022-10-27T15:22:26.430Z,983.9
2022-10-27T15:27:58.171Z,984.09
2022-10-27T15:33:29.874Z,983.79
2022-10-27T15:39:02.201Z,983.62
2022-10-27T15:44:33.486Z,983.56
2022-10-27T15:50:05.086Z,983.38
2022-10-27T15:55:37.613Z,983.42
2022-10-27T16:01:09.787Z,983.24
2022-10-27T16:06:40.903Z,983.1
2022-10-27T16:12:16.645Z,982.94
2022-10-27T16:17:48.405Z,982.91
2022-10-27T16:23:20.127Z,982.85
2022-10-27T16:28:53.383Z,982.8
2022-10-27T16:34:29.791Z,982.69
2022-10-27T16:39:55.558Z,982.57
2022-10-27T16:45:27.678Z,982.5
2022-10-27T16:50:59.062Z,982.49
2022-10-27T16:56:30.446Z,982.59
2022-10-27T17:02:02.952Z,982.55
2022-10-27T17:07:34.057Z,982.52
2022-10-27T17:13:10.438Z,982.6
2022-10-27T17:18:42.070Z,982.52
2022-10-27T17:24:13.756Z,982.66
2022-10-27T17:29:45.580Z,982.85
2022-10-27T17:35:17.322Z,982.97
2022-10-27T17:40:48.774Z,983.11
2022-10-27T17:46:20.857Z,983.13
2022-10-27T17:51:52.482Z,983.19
2022-10-27T17:57:24.101Z,983.11
2022-10-27T18:02:56.446Z,982.98
2022-10-27T18:08:27.591Z,983.24
2022-10-27T18:14:04.733Z,983.19
2022-10-27T18:19:35.694Z,983.3
2022-10-27T18:25:07.850Z,983.14
2022-10-27T18:30:39.147Z,983.13
2022-10-27T18:36:10.593Z,983.14
2022-10-27T18:41:42.825Z,983.17
2022-10-27T18:47:14.270Z,982.98
2022-10-27T18:52:46.162Z,983.06
2022-10-27T18:58:17.795Z,983.04
2022-10-27T19:03:53.664Z,983.05
2022-10-27T19:09:21.514Z,983.09
2022-10-27T19:14:59.631Z,983.09
2022-10-27T19:20:31.034Z,983.26
2022-10-27T19:26:02.806Z,982.99
2022-10-27T19:31:34.920Z,982.92
2022-10-27T19:37:06.254Z,983.01
2022-10-27T19:42:38.275Z,983.11
2022-10-27T19:48:10.158Z,983.08
2022-10-27T19:53:41.731Z,983.04
2022-10-27T19:59:13.421Z,982.98
2022-10-27T20:04:44.845Z,983.06
2022-10-27T20:10:16.826Z,982.82
2022-10-27T20:15:54.714Z,982.83
2022-10-27T20:21:26.633Z,982.82
2022-10-27T20:26:58.408Z,982.89
2022-10-27T20:32:29.828Z,982.82
2022-10-27T20:38:01.793Z,982.93
2022-10-27T20:43:33.638Z,982.77
2022-10-27T20:49:05.403Z,982.64
2022-10-27T20:54:37.134Z,982.66
2022-10-27T21:00:08.613Z,982.62
2022-10-27T21:05:40.246Z,982.7
2022-10-27T21:11:12.241Z,982.57
2022-10-27T21:16:52.702Z,982.28
2022-10-27T21:22:19.763Z,982.49
2022-10-27T21:27:51.750Z,982.67
2022-10-27T21:33:23.534Z,982.73
2022-10-27T21:38:55.278Z,982.64
2022-10-27T21:44:26.934Z,982.79
2022-10-27T21:49:58.929Z,982.63
2022-10-27T21:55:30.269Z,982.52
2022-10-27T22:01:02.338Z,982.69
2022-10-27T22:06:34.575Z,982.62
2022-10-27T22:12:05.489Z,982.56
2022-10-27T22:17:43.466Z,982.76
2022-10-27T22:23:15.438Z,982.68
2022-10-27T22:28:46.954Z,982.53
2022-10-27T22:34:18.966Z,982.44
2022-10-27T22:39:50.418Z,982.47
2022-10-27T22:45:22.098Z,982.18
2022-10-27T22:50:53.903Z,982.42
2022-10-27T22:56:25.702Z,982.19
2022-10-27T23:01:57.884Z,982.24
2022-10-27T23:07:29.250Z,982.67
2022-10-27T23:13:00.894Z,982.69
2022-10-27T23:18:36.858Z,982.81
2022-10-27T23:24:08.627Z,983.02
2022-10-27T23:29:40.467Z,983.26
2022-10-27T23:35:12.242Z,983.01
2022-10-27T23:40:43.738Z,982.81
2022-10-27T23:46:15.606Z,982.59
2022-10-27T23:51:47.270Z,982.53
2022-10-27T23:57:18.946Z,982.59
